Time;durP1;ratioP1;P1;durP2;ratioP2;P2;SDS_P1;SDS_P2;PMS_P1;PMS_P2;Temp;Humidity;BMP_temperature;BMP_pressure;BME280_temperature;BME280_humidity;BME280_pressure;Samples;Min_cycle;Max_cycle;Signal;HPM_P1;HPM_P2
2023/03/18 00:00:10;;;;;;;24.85;22.45;;;10.70;99.90;;;;;;5012657;28;20537;-74
2023/03/18 00:02:38;;;;;;;25.73;23.55;;;10.70;99.90;;;;;;4994712;28;20045;-74
2023/03/18 00:05:06;;;;;;;24.52;22.30;;;10.70;99.90;;;;;;4994028;28;20037;-72
2023/03/18 00:07:35;;;;;;;24.63;22.65;;;10.60;99.90;;;;;;5012217;28;20103;-75
2023/03/18 00:10:03;;;;;;;24.77;22.75;;;10.60;99.90;;;;;;5012877;28;20055;-75
2023/03/18 00:12:31;;;;;;;23.90;22.00;;;10.60;99.90;;;;;;4993085;28;20073;-75
2023/03/18 00:14:58;;;;;;;23.95;21.80;;;10.50;99.90;;;;;;4994110;28;20352;-75
2023/03/18 00:17:25;;;;;;;22.63;20.73;;;10.50;99.90;;;;;;4994666;28;20500;-74
2023/03/18 00:19:52;;;;;;;21.63;19.98;;;10.50;99.90;;;;;;4980351;28;20045;-74
2023/03/18 00:22:19;;;;;;;23.67;21.95;;;10.40;99.90;;;;;;4977583;28;20045;-74
2023/03/18 00:24:47;;;;;;;23.55;21.17;;;10.40;99.90;;;;;;5014756;28;20383;-74
2023/03/18 00:27:14;;;;;;;23.20;21.25;;;10.40;99.90;;;;;;4991641;28;20034;-75
2023/03/18 00:29:41;;;;;;;21.90;20.17;;;10.30;99.90;;;;;;4995366;28;20068;-74
2023/03/18 00:32:07;;;;;;;21.35;19.65;;;10.30;99.90;;;;;;4987771;28;20143;-75
2023/03/18 00:34:34;;;;;;;21.58;19.65;;;10.30;99.90;;;;;;5015014;28;20068;-75
2023/03/18 00:37:02;;;;;;;21.35;19.52;;;10.20;99.90;;;;;;4995008;28;20449;-75
2023/03/18 00:39:31;;;;;;;21.40;19.45;;;10.20;99.90;;;;;;4994820;28;20045;-76
2023/03/18 00:42:06;;;;;;;20.88;19.05;;;10.10;99.90;;;;;;4991476;28;20052;-76
2023/03/18 00:44:33;;;;;;;;;;;10.10;99.90;;;;;;4996804;28;20123;-77
2023/03/18 00:47:00;;;;;;;19.10;17.38;;;10.10;99.90;;;;;;4997280;28;20153;-77
2023/03/18 00:49:27;;;;;;;23.00;14.75;;;10.10;99.90;;;;;;4994137;28;20095;-76
2023/03/18 00:51:53;;;;;;;17.90;14.50;;;10.00;99.90;;;;;;5013478;28;20034;-76
2023/03/18 00:54:21;;;;;;;16.08;13.18;;;9.90;99.90;;;;;;4994023;28;20041;-76
2023/03/18 00:56:48;;;;;;;18.10;12.80;;;10.00;99.90;;;;;;4995978;28;20155;-76
2023/03/18 00:59:15;;;;;;;14.85;11.48;;;9.90;99.90;;;;;;5013929;28;20049;-76
2023/03/18 01:01:43;;;;;;;23.67;13.18;;;9.90;99.90;;;;;;5014495;28;20049;-76
2023/03/18 01:04:10;;;;;;;22.95;12.85;;;9.80;99.90;;;;;;5015577;28;20476;-76
2023/03/18 01:06:37;;;;;;;18.98;12.05;;;9.70;99.90;;;;;;5015042;28;20072;-77
2023/03/18 01:09:07;;;;;;;21.80;11.75;;;9.70;99.90;;;;;;4997342;28;20140;-76
2023/03/18 01:11:34;;;;;;;22.95;11.13;;;9.60;99.90;;;;;;5014635;28;20420;-75
2023/03/18 01:14:02;;;;;;;19.65;11.70;;;9.60;99.90;;;;;;4996225;28;20057;-76
2023/03/18 01:16:29;;;;;;;20.33;10.65;;;9.60;99.90;;;;;;4994159;28;20041;-75
2023/03/18 01:18:57;;;;;;;24.65;11.30;;;9.60;99.90;;;;;;4998879;28;20068;-76
2023/03/18 01:21:24;;;;;;;27.38;11.68;;;9.50;99.90;;;;;;4996311;28;20526;-76
2023/03/18 01:23:56;;;;;;;21.98;11.82;;;9.50;99.90;;;;;;4998987;28;20531;-76
2023/03/18 01:26:25;;;;;;;33.72;12.75;;;9.50;99.90;;;;;;4996728;28;20503;-76
2023/03/18 01:28:53;;;;;;;26.38;13.70;;;9.60;99.90;;;;;;4981173;28;20043;-76
2023/03/18 01:31:20;;;;;;;21.70;13.02;;;9.50;99.90;;;;;;5029160;28;20631;-76
2023/03/18 01:33:47;;;;;;;21.45;12.38;;;9.60;99.90;;;;;;4997965;28;20306;-76
2023/03/18 01:36:16;;;;;;;29.10;14.25;;;9.60;99.90;;;;;;4998046;28;20049;-76
2023/03/18 01:38:48;;;;;;;21.30;14.57;;;9.60;99.90;;;;;;4998869;28;20384;-73
2023/03/18 01:41:16;;;;;;;23.83;12.60;;;9.60;99.90;;;;;;4998712;28;20384;-74
2023/03/18 01:43:42;;;;;;;26.92;14.43;;;9.60;99.90;;;;;;5000545;28;20060;-74
2023/03/18 01:46:44;;;;;;;28.27;13.93;;;9.60;99.90;;;;;;4999199;28;20041;-75
2023/03/18 01:49:22;;;;;;;23.00;13.80;;;9.70;99.90;;;;;;4950731;28;20054;-74
2023/03/18 01:52:08;;;;;;;30.33;15.20;;;9.70;99.90;;;;;;4997865;28;20582;-74
2023/03/18 01:54:41;;;;;;;28.27;13.85;;;9.60;99.90;;;;;;4995494;28;20045;-74
2023/03/18 01:57:08;;;;;;;31.23;16.02;;;9.60;99.90;;;;;;4980852;28;20088;-74
2023/03/18 01:59:38;;;;;;;31.42;15.32;;;9.60;99.90;;;;;;5000441;28;20868;-75
2023/03/18 02:02:11;;;;;;;24.23;14.32;;;9.60;99.90;;;;;;4996307;28;20349;-74
2023/03/18 02:04:50;;;;;;;26.77;14.48;;;9.60;99.90;;;;;;4985964;28;20053;-74
2023/03/18 02:07:20;;;;;;;26.00;14.52;;;9.60;99.90;;;;;;4998279;28;20133;-74
2023/03/18 02:09:48;;;;;;;29.38;15.20;;;9.70;99.90;;;;;;4994237;28;20176;-74
2023/03/18 02:12:28;;;;;;;28.13;15.90;;;9.70;99.90;;;;;;4999309;28;20053;-74
2023/03/18 02:15:00;;;;;;;30.80;16.05;;;9.80;99.90;;;;;;5013904;28;20076;-74
2023/03/18 02:17:32;;;;;;;38.53;17.90;;;9.80;99.90;;;;;;4996540;28;20041;-74
2023/03/18 02:20:26;;;;;;;30.77;16.85;;;9.70;99.90;;;;;;4998226;28;20615;-74
2023/03/18 02:22:59;;;;;;;;;;;9.60;99.90;;;;;;4981087;28;20111;-74
2023/03/18 02:26:02;;;;;;;23.27;16.10;;;9.60;99.90;;;;;;4994030;28;20142;-74
2023/03/18 02:28:30;;;;;;;29.88;16.77;;;9.60;99.90;;;;;;4994943;28;20050;-74
2023/03/18 02:31:02;;;;;;;29.90;16.48;;;9.50;99.90;;;;;;4993404;28;20137;-74
2023/03/18 02:33:37;;;;;;;32.50;16.65;;;9.50;99.90;;;;;;4996491;28;20551;-74
2023/03/18 02:36:27;;;;;;;32.28;16.77;;;9.50;99.90;;;;;;4995878;28;20072;-74
2023/03/18 02:38:56;;;;;;;33.60;17.48;;;9.50;99.90;;;;;;4975895;28;20048;-73
2023/03/18 02:41:27;;;;;;;30.63;17.00;;;9.50;99.90;;;;;;4996288;28;20228;-74
2023/03/18 02:43:54;;;;;;;34.45;17.58;;;9.50;99.90;;;;;;4990675;28;20045;-74
2023/03/18 02:46:46;;;;;;;30.33;16.88;;;9.50;99.90;;;;;;5001140;28;20332;-74
2023/03/18 02:49:14;;;;;;;27.65;16.42;;;9.60;99.90;;;;;;4993294;28;20279;-74
2023/03/18 02:51:41;;;;;;;22.50;15.25;;;9.60;99.90;;;;;;4993250;28;20100;-74
2023/03/18 02:54:17;;;;;;;29.83;15.25;;;9.60;99.90;;;;;;4994910;28;20041;-73
2023/03/18 02:56:44;;;;;;;33.63;17.17;;;9.60;99.90;;;;;;5027482;28;20060;-73
2023/03/18 02:59:11;;;;;;;32.78;15.27;;;9.60;99.90;;;;;;4993307;28;20046;-73
2023/03/18 03:01:40;;;;;;;33.08;15.52;;;9.60;99.90;;;;;;4992802;28;20599;-73
2023/03/18 03:04:07;;;;;;;29.45;16.13;;;9.50;99.90;;;;;;4995987;28;20488;-73
2023/03/18 03:06:35;;;;;;;24.10;15.75;;;9.50;99.90;;;;;;5011759;28;20471;-73
2023/03/18 03:09:04;;;;;;;25.13;15.23;;;9.60;99.90;;;;;;5000235;28;20674;-74
2023/03/18 03:11:33;;;;;;;30.50;15.23;;;9.50;99.90;;;;;;4997690;28;20049;-73
2023/03/18 03:14:09;;;;;;;23.95;14.63;;;9.50;99.90;;;;;;4991413;28;20046;-73
2023/03/18 03:16:37;;;;;;;30.75;16.02;;;9.60;99.90;;;;;;5008106;28;20275;-73
2023/03/18 03:19:05;;;;;;;22.50;14.27;;;9.60;99.90;;;;;;5015200;28;20073;-73
2023/03/18 03:21:34;;;;;;;22.48;14.80;;;9.60;99.90;;;;;;4993665;28;20530;-73
2023/03/18 03:24:03;;;;;;;19.25;13.48;;;9.60;99.90;;;;;;5015607;28;20049;-73
2023/03/18 03:26:30;;;;;;;22.08;13.68;;;9.60;99.90;;;;;;4989932;28;20716;-73
2023/03/18 03:28:57;;;;;;;27.92;13.70;;;9.60;99.90;;;;;;4991963;28;20103;-73
2023/03/18 03:31:25;;;;;;;27.38;13.57;;;9.70;99.90;;;;;;5017516;28;20040;-73
2023/03/18 03:33:52;;;;;;;22.85;13.10;;;9.70;99.90;;;;;;4995529;28;20652;-73
2023/03/18 03:36:19;;;;;;;24.25;13.30;;;9.70;99.90;;;;;;4991215;28;20128;-73
2023/03/18 03:38:47;;;;;;;23.35;12.82;;;9.80;99.90;;;;;;5014606;28;20131;-74
2023/03/18 03:41:14;;;;;;;22.85;13.25;;;9.80;99.90;;;;;;5012058;28;20111;-73
2023/03/18 03:43:42;;;;;;;20.75;12.13;;;9.80;99.90;;;;;;5014707;28;20152;-73
2023/03/18 03:46:09;;;;;;;20.48;12.27;;;9.90;99.90;;;;;;4998487;28;20065;-73
2023/03/18 03:48:38;;;;;;;23.75;12.30;;;9.80;99.90;;;;;;5030980;28;20049;-73
2023/03/18 03:51:09;;;;;;;17.23;12.50;;;9.80;99.90;;;;;;4998307;28;20049;-72
2023/03/18 03:53:36;;;;;;;21.80;12.48;;;9.80;99.90;;;;;;5001840;28;20421;-73
2023/03/18 03:56:04;;;;;;;22.52;14.05;;;9.80;99.90;;;;;;4997625;28;20410;-73
2023/03/18 03:58:30;;;;;;;23.35;12.82;;;9.80;99.90;;;;;;4997269;28;20037;-73
2023/03/18 04:00:57;;;;;;;26.35;14.13;;;9.80;99.90;;;;;;4994512;28;20041;-73
2023/03/18 04:03:24;;;;;;;27.00;14.23;;;9.70;99.90;;;;;;4998011;28;20424;-73
2023/03/18 04:05:53;;;;;;;24.08;15.18;;;9.70;99.90;;;;;;4980300;28;20078;-73
2023/03/18 04:08:23;;;;;;;26.92;15.20;;;9.70;99.90;;;;;;4995816;28;20136;-73
2023/03/18 04:10:50;;;;;;;22.77;13.80;;;9.60;99.90;;;;;;4978754;28;20095;-72
2023/03/18 04:13:17;;;;;;;23.50;13.80;;;9.60;99.90;;;;;;5012381;28;20050;-73
2023/03/18 04:15:46;;;;;;;25.17;14.27;;;9.60;99.90;;;;;;4976242;28;20074;-72
2023/03/18 04:18:17;;;;;;;21.15;13.73;;;9.50;99.90;;;;;;4997255;28;20412;-73
2023/03/18 04:20:45;;;;;;;21.92;13.60;;;9.40;99.90;;;;;;4993689;28;20215;-73
2023/03/18 04:23:19;;;;;;;21.58;14.00;;;9.40;99.90;;;;;;5011468;28;20069;-73
2023/03/18 04:25:46;;;;;;;26.73;15.07;;;9.30;99.90;;;;;;5011275;28;20144;-73
2023/03/18 04:28:15;;;;;;;23.38;14.13;;;9.30;99.90;;;;;;4979065;28;20210;-72
2023/03/18 04:30:41;;;;;;;26.40;14.05;;;9.20;99.90;;;;;;4995856;28;20492;-72
2023/03/18 04:33:13;;;;;;;24.77;15.23;;;9.20;99.90;;;;;;4999144;28;20515;-73
2023/03/18 04:35:43;;;;;;;23.00;14.20;;;9.20;99.90;;;;;;5030529;28;20304;-73
2023/03/18 04:38:12;;;;;;;26.05;14.50;;;9.20;99.90;;;;;;4993412;28;20138;-72
2023/03/18 04:40:39;;;;;;;27.00;14.82;;;9.10;99.90;;;;;;5029277;28;20068;-74
2023/03/18 04:43:06;;;;;;;26.67;15.68;;;9.30;99.90;;;;;;4998402;28;20072;-74
2023/03/18 04:45:33;;;;;;;30.85;15.05;;;9.20;99.90;;;;;;4997555;28;20263;-74
2023/03/18 04:48:01;;;;;;;27.10;16.30;;;9.20;99.90;;;;;;4990131;28;20049;-73
2023/03/18 04:50:31;;;;;;;27.88;15.90;;;9.10;99.90;;;;;;4998449;28;21717;-72
2023/03/18 04:52:59;;;;;;;34.92;16.73;;;9.10;99.90;;;;;;5001946;28;20052;-72
2023/03/18 04:55:28;;;;;;;33.15;17.02;;;9.10;99.90;;;;;;4993480;28;20251;-72
2023/03/18 04:57:55;;;;;;;27.10;16.45;;;9.10;99.90;;;;;;4996824;28;20063;-72
2023/03/18 05:00:24;;;;;;;27.25;15.00;;;9.10;99.90;;;;;;4998767;28;20037;-72
2023/03/18 05:03:00;;;;;;;32.50;17.33;;;8.90;99.90;;;;;;5001762;28;20273;-72
2023/03/18 05:05:27;;;;;;;33.42;17.23;;;8.90;99.90;;;;;;5014545;28;20041;-73
2023/03/18 05:07:54;;;;;;;35.83;17.92;;;8.80;99.90;;;;;;5000667;28;20072;-72
2023/03/18 05:10:22;;;;;;;31.23;17.92;;;8.80;99.90;;;;;;4998630;28;20048;-73
2023/03/18 05:12:49;;;;;;;33.50;18.27;;;8.80;99.90;;;;;;4999291;28;20045;-72
2023/03/18 05:15:24;;;;;;;27.10;16.95;;;8.70;99.90;;;;;;4983243;28;20412;-73
2023/03/18 05:17:54;;;;;;;30.55;18.35;;;8.60;99.90;;;;;;4996541;28;20319;-73
2023/03/18 05:20:21;;;;;;;31.90;18.65;;;8.60;99.90;;;;;;5016678;28;20504;-73
2023/03/18 05:22:48;;;;;;;32.85;18.27;;;8.50;99.90;;;;;;5029718;28;20246;-73
2023/03/18 05:25:26;;;;;;;40.15;21.05;;;8.60;99.90;;;;;;4996008;28;20096;-72
2023/03/18 05:27:53;;;;;;;33.75;18.77;;;8.60;99.90;;;;;;5016159;28;20038;-72
2023/03/18 05:30:29;;;;;;;37.92;21.48;;;8.70;99.90;;;;;;4995686;28;20528;-73
2023/03/18 05:32:56;;;;;;;37.67;21.13;;;8.40;99.90;;;;;;4983942;28;20058;-72
2023/03/18 05:35:36;;;;;;;37.33;20.95;;;8.40;99.90;;;;;;4997980;28;20045;-72
2023/03/18 05:38:03;;;;;;;28.08;19.58;;;8.30;99.90;;;;;;4999350;28;20045;-73
2023/03/18 05:40:30;;;;;;;41.15;19.65;;;8.20;99.90;;;;;;4996553;28;20465;-72
2023/03/18 05:43:04;;;;;;;36.35;19.40;;;8.10;99.90;;;;;;4999335;28;20104;-73
2023/03/18 05:45:38;;;;;;;32.95;17.88;;;8.10;99.90;;;;;;5012533;28;20049;-72
2023/03/18 05:48:09;;;;;;;34.78;19.60;;;8.10;99.90;;;;;;5000206;28;20358;-72
2023/03/18 05:50:43;;;;;;;39.78;17.98;;;8.20;99.90;;;;;;4994168;28;20108;-73
2023/03/18 05:53:15;;;;;;;34.85;19.58;;;8.20;99.90;;;;;;4997767;28;20060;-74
2023/03/18 05:55:44;;;;;;;33.42;18.83;;;8.10;99.90;;;;;;5030142;28;20388;-72
2023/03/18 05:58:11;;;;;;;34.67;20.20;;;8.10;99.90;;;;;;4996721;28;20053;-73
2023/03/18 06:00:40;;;;;;;34.88;19.65;;;8.10;99.90;;;;;;4997048;28;20049;-73
2023/03/18 06:03:09;;;;;;;39.08;20.92;;;8.10;99.90;;;;;;5015134;28;20045;-73
2023/03/18 06:05:36;;;;;;;45.40;21.15;;;8.10;99.90;;;;;;4996906;28;20761;-73
2023/03/18 06:08:03;;;;;;;37.90;22.63;;;8.10;99.90;;;;;;4998418;28;20599;-72
2023/03/18 06:10:32;;;;;;;36.10;21.38;;;8.10;99.90;;;;;;4981190;28;20052;-73
2023/03/18 06:12:59;;;;;;;40.13;21.55;;;8.10;99.90;;;;;;4998332;28;20061;-72
2023/03/18 06:15:26;;;;;;;41.67;21.73;;;8.00;99.90;;;;;;4995864;28;20215;-72
2023/03/18 06:17:55;;;;;;;41.33;22.77;;;7.90;99.90;;;;;;5028194;28;20076;-73
2023/03/18 06:20:22;;;;;;;39.58;22.92;;;7.90;99.90;;;;;;4995553;28;20045;-72
2023/03/18 06:22:49;;;;;;;48.92;23.42;;;7.90;99.90;;;;;;4999711;28;20333;-72
2023/03/18 06:25:18;;;;;;;51.55;25.40;;;7.90;99.90;;;;;;4998509;28;20069;-72
2023/03/18 06:27:46;;;;;;;41.00;22.50;;;7.80;99.90;;;;;;4996814;28;20077;-73
2023/03/18 06:30:16;;;;;;;43.00;23.67;;;7.80;99.90;;;;;;4995524;28;20053;-73
2023/03/18 06:32:43;;;;;;;40.10;24.73;;;7.90;99.90;;;;;;4978005;28;20060;-72
2023/03/18 06:35:11;;;;;;;45.55;23.48;;;8.00;99.90;;;;;;4997845;28;20431;-72
2023/03/18 06:37:38;;;;;;;47.45;23.20;;;8.00;99.90;;;;;;4997697;28;20472;-72
2023/03/18 06:40:09;;;;;;;48.60;24.63;;;8.00;99.90;;;;;;4993481;28;20455;-72
2023/03/18 06:42:36;;;;;;;36.03;21.85;;;8.10;99.90;;;;;;4974609;28;20110;-72
2023/03/18 06:45:09;;;;;;;44.10;23.20;;;8.20;99.90;;;;;;4998238;28;20038;-73
2023/03/18 06:47:46;;;;;;;41.20;23.38;;;8.30;99.90;;;;;;4981647;28;20534;-72
2023/03/18 06:50:14;;;;;;;38.78;22.98;;;8.40;99.90;;;;;;4994602;28;20045;-72
2023/03/18 06:52:42;;;;;;;41.50;23.60;;;8.50;99.90;;;;;;4997059;28;20188;-73
2023/03/18 06:55:13;;;;;;;41.15;24.30;;;8.60;99.90;;;;;;4994616;28;20053;-72
2023/03/18 06:57:44;;;;;;;41.58;22.60;;;8.70;99.90;;;;;;4996423;28;20045;-72
2023/03/18 07:00:14;;;;;;;40.03;21.25;;;8.80;99.90;;;;;;4996470;28;20049;-72
2023/03/18 07:02:42;;;;;;;32.78;21.10;;;8.90;99.90;;;;;;4996661;28;20531;-72
2023/03/18 07:05:11;;;;;;;32.00;20.75;;;9.00;99.90;;;;;;4996416;28;20068;-72
2023/03/18 07:07:40;;;;;;;30.35;20.13;;;9.10;99.90;;;;;;4995792;28;20050;-73
2023/03/18 07:10:14;;;;;;;28.45;18.83;;;9.10;99.90;;;;;;4994751;28;20045;-72
2023/03/18 07:12:40;;;;;;;24.77;16.67;;;9.10;99.90;;;;;;4995585;28;20047;-72
2023/03/18 07:15:08;;;;;;;25.17;15.23;;;9.10;99.90;;;;;;4993017;28;20073;-73
2023/03/18 07:17:36;;;;;;;23.80;14.40;;;9.10;99.90;;;;;;4995301;28;20088;-73
2023/03/18 07:20:04;;;;;;;24.00;16.73;;;9.20;99.90;;;;;;5015021;28;20042;-72
2023/03/18 07:22:34;;;;;;;22.63;14.68;;;9.20;99.90;;;;;;4996272;28;20064;-73
2023/03/18 07:25:00;;;;;;;20.58;14.40;;;9.30;99.90;;;;;;5015244;28;20038;-73
2023/03/18 07:27:28;;;;;;;23.15;12.77;;;9.40;99.90;;;;;;4996215;28;20120;-72
2023/03/18 07:29:55;;;;;;;17.90;13.07;;;9.50;99.90;;;;;;5012090;28;20072;-72
2023/03/18 07:32:22;;;;;;;17.83;12.60;;;9.70;99.90;;;;;;5012354;28;20063;-72
2023/03/18 07:34:49;;;;;;;14.88;10.20;;;9.80;99.90;;;;;;4993799;28;20260;-72
2023/03/18 07:37:16;;;;;;;11.40;10.10;;;10.00;99.90;;;;;;5030795;28;20281;-72
2023/03/18 07:39:42;;;;;;;14.07;9.00;;;10.20;99.90;;;;;;5026487;28;20120;-73
2023/03/18 07:42:10;;;;;;;11.02;8.02;;;10.50;99.90;;;;;;5007383;28;20681;-72
2023/03/18 07:44:40;;;;;;;9.80;7.57;;;10.80;99.90;;;;;;5026931;28;20111;-72
2023/03/18 07:47:06;;;;;;;13.00;11.27;;;11.10;99.90;;;;;;4992365;28;20269;-72
2023/03/18 07:49:33;;;;;;;12.45;11.32;;;11.30;99.90;;;;;;5010971;28;20496;-72
2023/03/18 07:52:01;;;;;;;15.88;12.55;;;11.40;99.90;;;;;;4996391;28;20052;-72
2023/03/18 07:54:27;;;;;;;16.80;15.60;;;11.50;99.90;;;;;;5012042;28;20120;-73
2023/03/18 07:56:54;;;;;;;20.17;18.55;;;11.80;99.90;;;;;;4993987;28;20038;-73
2023/03/18 07:59:21;;;;;;;19.83;18.33;;;12.00;99.90;;;;;;4995605;28;20111;-73
2023/03/18 08:01:47;;;;;;;22.23;20.20;;;12.10;99.90;;;;;;4982656;28;20524;-72
2023/03/18 08:04:15;;;;;;;24.42;22.40;;;12.00;99.90;;;;;;5018998;28;20140;-72
2023/03/18 08:06:42;;;;;;;21.05;19.75;;;12.10;99.90;;;;;;4996063;28;20530;-73
2023/03/18 08:09:09;;;;;;;23.50;21.90;;;12.40;99.90;;;;;;5019298;28;20152;-73
2023/03/18 08:11:36;;;;;;;27.35;25.27;;;12.60;99.90;;;;;;5015019;28;20038;-72
2023/03/18 08:14:03;;;;;;;23.90;22.40;;;12.70;99.90;;;;;;5018814;28;20041;-73
2023/03/18 08:16:30;;;;;;;24.52;22.98;;;12.60;99.90;;;;;;5016459;28;20041;-72
2023/03/18 08:18:57;;;;;;;23.70;22.17;;;12.50;99.90;;;;;;5033406;28;20459;-72
2023/03/18 08:21:24;;;;;;;26.15;24.45;;;12.70;99.90;;;;;;5015493;28;20038;-72
2023/03/18 08:23:51;;;;;;;26.10;24.35;;;12.70;99.90;;;;;;5031529;28;20068;-73
2023/03/18 08:26:18;;;;;;;27.35;25.55;;;12.60;99.90;;;;;;4992611;28;20072;-72
2023/03/18 08:28:44;;;;;;;26.42;24.48;;;12.50;99.90;;;;;;4998791;28;20061;-72
2023/03/18 08:31:13;;;;;;;30.60;27.80;;;12.40;99.90;;;;;;4997760;28;20042;-72
2023/03/18 08:33:40;;;;;;;26.30;24.33;;;12.40;99.90;;;;;;5001862;28;20465;-72
2023/03/18 08:36:07;;;;;;;29.23;26.77;;;12.40;99.90;;;;;;4999928;28;20055;-73
2023/03/18 08:38:34;;;;;;;30.05;27.63;;;12.30;99.90;;;;;;5015228;28;20342;-72
2023/03/18 08:41:02;;;;;;;32.00;29.63;;;12.30;99.90;;;;;;4992914;28;20276;-72
2023/03/18 08:43:29;;;;;;;30.48;28.45;;;12.30;99.90;;;;;;5013084;28;20041;-72
2023/03/18 08:45:56;;;;;;;31.55;29.52;;;12.40;99.90;;;;;;4994089;28;20350;-72
2023/03/18 08:48:24;;;;;;;29.77;27.92;;;12.50;99.90;;;;;;5018531;28;20041;-72
2023/03/18 08:50:51;;;;;;;30.13;28.42;;;12.60;99.90;;;;;;5012712;28;20048;-72
2023/03/18 08:53:18;;;;;;;29.15;27.25;;;12.50;99.90;;;;;;4998517;28;20038;-73
2023/03/18 08:55:46;;;;;;;32.55;30.85;;;12.70;99.90;;;;;;4997285;28;20976;-73
2023/03/18 08:58:12;;;;;;;35.60;33.67;;;12.80;99.90;;;;;;5019001;28;20426;-73
2023/03/18 09:00:40;;;;;;;26.73;25.33;;;13.10;99.90;;;;;;4993457;28;20050;-73
2023/03/18 09:03:08;;;;;;;27.42;25.70;;;13.20;99.90;;;;;;5000643;28;20056;-72
2023/03/18 09:05:36;;;;;;;27.00;25.52;;;13.20;99.90;;;;;;5015862;28;20068;-73
2023/03/18 09:08:04;;;;;;;28.13;26.80;;;13.20;99.90;;;;;;5013340;28;20037;-73
2023/03/18 09:10:32;;;;;;;27.20;25.42;;;13.10;99.90;;;;;;5013302;28;20062;-72
2023/03/18 09:12:59;;;;;;;27.42;25.90;;;13.10;99.90;;;;;;5014642;28;20569;-73
2023/03/18 09:15:26;;;;;;;29.67;27.73;;;13.00;99.90;;;;;;4997861;28;20500;-72
2023/03/18 09:17:53;;;;;;;28.45;26.70;;;12.90;99.90;;;;;;5016218;28;20423;-73
2023/03/18 09:20:37;;;;;;;27.92;26.52;;;12.90;99.90;;;;;;4994475;28;20041;-73
2023/03/18 09:23:05;;;;;;;27.05;25.48;;;12.90;99.90;;;;;;5001471;28;20107;-73
2023/03/18 09:25:32;;;;;;;28.13;26.50;;;12.90;99.90;;;;;;4996499;28;20045;-73
2023/03/18 09:28:00;;;;;;;27.67;26.08;;;13.00;99.90;;;;;;4997093;28;20159;-73
2023/03/18 09:30:27;;;;;;;28.02;26.23;;;12.90;99.90;;;;;;5015438;28;20107;-73
2023/03/18 09:32:55;;;;;;;26.75;25.17;;;12.90;99.90;;;;;;4997961;28;20688;-73
2023/03/18 09:35:23;;;;;;;26.42;24.95;;;12.90;99.90;;;;;;4997998;28;20046;-72
2023/03/18 09:37:50;;;;;;;27.85;26.38;;;12.80;99.90;;;;;;4997955;28;20384;-73
2023/03/18 09:40:34;;;;;;;26.13;24.73;;;12.80;99.90;;;;;;4998675;28;20415;-74
2023/03/18 09:43:37;;;;;;;26.45;24.92;;;12.80;99.90;;;;;;5012937;28;20238;-73
2023/03/18 09:46:15;;;;;;;24.33;23.02;;;12.90;99.90;;;;;;5009276;28;20033;-73
2023/03/18 09:49:19;;;;;;;27.58;26.27;;;13.10;99.90;;;;;;4994734;28;20072;-73
2023/03/18 09:52:15;;;;;;;28.23;26.70;;;13.20;99.90;;;;;;4993567;28;20048;-73
2023/03/18 09:54:46;;;;;;;25.83;24.40;;;13.20;99.90;;;;;;4994594;28;20399;-74
2023/03/18 09:57:31;;;;;;;29.08;27.48;;;13.40;99.90;;;;;;4995232;28;20316;-73
2023/03/18 10:00:08;;;;;;;30.00;28.23;;;13.30;99.90;;;;;;5013148;28;20422;-74
2023/03/18 10:02:40;;;;;;;28.00;26.48;;;13.40;99.90;;;;;;5011751;28;20068;-73
2023/03/18 10:05:31;;;;;;;27.48;25.98;;;13.40;99.90;;;;;;5010401;28;20044;-74
2023/03/18 10:08:10;;;;;;;28.00;26.40;;;13.50;99.90;;;;;;4997214;28;20149;-74
2023/03/18 10:10:45;;;;;;;28.60;26.65;;;13.50;99.90;;;;;;4988923;28;20507;-74
2023/03/18 10:13:24;;;;;;;28.10;26.38;;;13.60;99.90;;;;;;4997799;28;20053;-74
2023/03/18 10:15:56;;;;;;;28.45;26.88;;;13.80;99.90;;;;;;5010415;28;20126;-74
2023/03/18 10:18:32;;;;;;;29.90;28.30;;;14.20;99.90;;;;;;4997639;28;20688;-74
2023/03/18 10:21:19;;;;;;;29.88;28.17;;;14.30;99.90;;;;;;5012664;28;20251;-74
2023/03/18 10:24:01;;;;;;;27.75;26.25;;;14.20;99.90;;;;;;5024848;28;20045;-74
2023/03/18 10:26:38;;;;;;;27.77;26.27;;;14.30;99.90;;;;;;4995059;28;20037;-74
2023/03/18 10:29:33;;;;;;;27.15;25.65;;;14.50;99.90;;;;;;4992419;28;20132;-74
2023/03/18 10:32:15;;;;;;;29.10;27.50;;;14.40;99.90;;;;;;5012132;28;20077;-73
2023/03/18 10:35:08;;;;;;;36.38;34.38;;;14.60;99.90;;;;;;5007957;28;20046;-74
2023/03/18 10:38:03;;;;;;;35.88;33.78;;;14.70;99.90;;;;;;4998051;28;20049;-74
2023/03/18 10:40:40;;;;;;;35.72;33.67;;;15.00;99.90;;;;;;5029051;28;20080;-74
2023/03/18 10:43:19;;;;;;;36.80;35.00;;;15.20;99.90;;;;;;5012655;28;20503;-75
2023/03/18 10:45:51;;;;;;;35.90;34.20;;;15.20;99.90;;;;;;4993031;28;20080;-74
2023/03/18 10:48:41;;;;;;;37.72;35.72;;;15.20;99.90;;;;;;4996173;28;20057;-73
2023/03/18 10:51:26;;;;;;;36.92;35.03;;;15.20;99.90;;;;;;4984215;28;20677;-74
2023/03/18 10:54:14;;;;;;;38.92;36.75;;;15.10;99.90;;;;;;5013432;28;20585;-74
2023/03/18 10:56:41;;;;;;;38.40;36.33;;;15.20;99.90;;;;;;4993416;28;20046;-74
2023/03/18 10:59:15;;;;;;;38.17;36.38;;;15.30;99.90;;;;;;4996868;28;20037;-73
2023/03/18 11:01:45;;;;;;;37.65;35.53;;;15.30;99.90;;;;;;5009224;28;20042;-75
2023/03/18 11:04:15;;;;;;;34.58;32.65;;;15.30;99.90;;;;;;4992787;28;20042;-74
2023/03/18 11:06:50;;;;;;;35.47;33.50;;;15.40;99.90;;;;;;5011135;28;20429;-74
2023/03/18 11:09:20;;;;;;;38.30;36.20;;;15.30;99.90;;;;;;5014545;28;20042;-74
2023/03/18 11:11:54;;;;;;;38.45;36.45;;;15.40;99.90;;;;;;4976408;28;20136;-74
2023/03/18 11:14:27;;;;;;;40.83;38.45;;;15.50;99.90;;;;;;5022460;22;20140;-70
2023/03/18 11:17:04;;;;;;;37.85;35.88;;;15.70;99.90;;;;;;5009995;28;20132;-70
2023/03/18 11:19:40;;;;;;;38.58;36.47;;;15.70;99.90;;;;;;4988678;28;20045;-70
2023/03/18 11:22:26;;;;;;;39.20;37.30;;;15.60;99.90;;;;;;5001155;28;20124;-70
2023/03/18 11:25:18;;;;;;;40.15;37.95;;;15.70;99.90;;;;;;4996264;28;21366;-70
2023/03/18 11:27:51;;;;;;;36.72;34.65;;;15.70;99.90;;;;;;5012061;28;20044;-70
2023/03/18 11:30:25;;;;;;;36.67;34.55;;;15.70;99.90;;;;;;4999887;28;20566;-69
2023/03/18 11:33:09;;;;;;;36.63;34.63;;;15.80;99.90;;;;;;5007178;28;20595;-71
2023/03/18 11:35:56;;;;;;;40.00;37.55;;;15.80;99.90;;;;;;5010928;28;20113;-71
2023/03/18 11:38:32;;;;;;;38.25;35.95;;;15.70;99.90;;;;;;5028227;28;20041;-70
2023/03/18 11:41:15;;;;;;;38.83;36.75;;;15.60;99.90;;;;;;5008084;28;21001;-69
2023/03/18 11:44:02;;;;;;;37.03;35.13;;;15.60;99.90;;;;;;5002492;28;20148;-70
2023/03/18 11:46:42;;;;;;;39.13;37.08;;;15.60;99.90;;;;;;5000904;28;20132;-73
2023/03/18 11:49:14;;;;;;;36.78;34.97;;;15.50;99.90;;;;;;5008045;28;20116;-71
2023/03/18 11:51:44;;;;;;;37.30;35.40;;;15.50;99.90;;;;;;5004229;28;20050;-70
2023/03/18 11:54:17;;;;;;;37.08;35.28;;;15.50;99.90;;;;;;5005369;28;20111;-71
2023/03/18 11:57:13;;;;;;;36.85;35.03;;;15.50;99.90;;;;;;5003261;28;20132;-72
2023/03/18 12:00:06;;;;;;;36.25;34.45;;;15.40;99.90;;;;;;5000992;28;20055;-70
2023/03/18 12:02:39;;;;;;;37.45;35.47;;;15.30;99.90;;;;;;5003588;28;20441;-71
2023/03/18 12:05:18;;;;;;;35.83;34.00;;;15.20;99.90;;;;;;5008884;28;20049;-70
2023/03/18 12:08:08;;;;;;;37.55;35.55;;;15.30;99.90;;;;;;5007522;28;20041;-69
2023/03/18 12:10:41;;;;;;;38.63;36.63;;;15.50;99.90;;;;;;5011191;28;20077;-70
2023/03/18 12:13:20;;;;;;;36.90;34.88;;;15.70;99.90;;;;;;5001320;28;20047;-69
2023/03/18 12:16:10;;;;;;;35.67;33.88;;;15.70;99.90;;;;;;5004049;28;20136;-70
2023/03/18 12:18:57;;;;;;;35.80;33.75;;;15.70;99.90;;;;;;5002478;28;20524;-71
2023/03/18 12:22:10;;;;;;;36.60;34.67;;;15.80;99.90;;;;;;4997948;28;20762;-70
2023/03/18 12:24:58;;;;;;;35.28;33.25;;;15.90;99.90;;;;;;4997959;28;20065;-71
2023/03/18 12:27:35;;;;;;;35.47;33.78;;;16.00;99.90;;;;;;5007414;28;20120;-71
2023/03/18 12:30:19;;;;;;;37.58;35.67;;;16.10;99.90;;;;;;5010171;28;20258;-69
2023/03/18 12:33:15;;;;;;;38.55;36.55;;;16.30;99.90;;;;;;5000022;28;20160;-71
2023/03/18 12:36:01;;;;;;;;;;;16.40;99.90;;;;;;5009015;28;20053;-72
2023/03/18 12:38:58;;;;;;;37.90;35.80;;;16.40;99.90;;;;;;5009378;28;19943;-69
2023/03/18 12:41:40;;;;;;;38.10;36.15;;;16.80;99.90;;;;;;4999542;28;20273;-70
2023/03/18 12:44:24;;;;;;;41.72;39.33;;;16.70;99.90;;;;;;5012830;28;20128;-68
2023/03/18 12:47:06;;;;;;;36.50;34.70;;;16.50;99.90;;;;;;5000970;28;20048;-69
2023/03/18 12:49:43;;;;;;;38.33;36.40;;;16.30;99.90;;;;;;5003091;28;20041;-68
2023/03/18 12:52:22;;;;;;;35.97;34.08;;;16.20;99.90;;;;;;5010421;28;20045;-70
2023/03/18 12:55:05;;;;;;;38.47;36.42;;;16.30;99.90;;;;;;5019088;28;20053;-70
2023/03/18 12:57:36;;;;;;;37.83;35.83;;;16.40;99.90;;;;;;5013545;28;20576;-69